FredonyerEastRWIS Atmospheric Data: 02/23/2021 Summary  Detailed Graphs  Station List

  Temperature     Wind Precipitation Visibility
Timestamp Air Wet
Bulb
Dew-
point
24-hr
Max
24-hr
Min
Relative
Humidity
Atmospheric
Pressure
Avg
Speed
Avg
Dir
Spot
Speed
Spot
Dir
Max
Speed
Max
Dir
  Rate Situation Start End 1 hr 3 hr 6 hr 12 hr 24 hr   Situation
Date Time °F °F °F °F °F % in Hg mph ° mph ° mph ° Y/N in/hr text Date Time Date Time in in in in in mi text
02/23/2021 12:09 AM 29.66 29.30 28.40 53.06 21.74 95.0 Not Reported 1.34 NW 1.12 NW 2.46 NW No 0.000 No Precipitation 02/20/2021 06:13 AM 02/20/2021 06:18 AM 0.000 0.000 0.000 0.000 0.000 Not Reported Not Reported
02/23/2021 12:23 AM 29.84 29.48 28.94 53.06 21.74 96.0 Not Reported 0.89 SW 0.89 S 1.79 W No 0.000 No Precipitation 02/20/2021 06:13 AM 02/20/2021 06:18 AM 0.000 0.000 0.000 0.000 0.000 Not Reported Not Reported
02/23/2021 12:41 AM 29.30 28.94 28.40 53.06 21.74 96.0 Not Reported 0.45 S 0.89 S 2.01 NW No 0.000 No Precipitation 02/20/2021 06:13 AM 02/20/2021 06:18 AM 0.000 0.000 0.000 0.000 0.000 Not Reported Not Reported
02/23/2021 12:53 AM 28.76 28.58 28.04 53.06 21.74 97.0 Not Reported 0.00 N 0.67 NW 0.67 NW No 0.000 No Precipitation 02/20/2021 06:13 AM 02/20/2021 06:18 AM 0.000 0.000 0.000 0.000 0.000 Not Reported Not Reported
02/23/2021 01:08 AM 28.58 28.40 28.04 53.06 21.74 97.0 Not Reported 0.67 S 0.00 S 1.12 S No 0.000 No Precipitation 02/20/2021 06:13 AM 02/20/2021 06:18 AM 0.000 0.000 0.000 0.000 0.000 Not Reported Not Reported
02/23/2021 01:23 AM 28.40 28.40 28.04 53.06 21.74 98.0 Not Reported 0.00 N 0.00 NE 2.46 NW No 0.000 No Precipitation 02/20/2021 06:13 AM 02/20/2021 06:18 AM 0.000 0.000 0.000 0.000 0.000 Not Reported Not Reported
02/23/2021 01:38 AM 28.04 28.04 27.86 53.06 21.74 98.0 Not Reported 0.67 NW 0.45 NW 1.12 NW No 0.000 No Precipitation 02/20/2021 06:13 AM 02/20/2021 06:18 AM 0.000 0.000 0.000 0.000 0.000 Not Reported Not Reported
02/23/2021 01:53 AM 28.04 27.86 27.68 53.06 21.74 98.0 Not Reported 1.12 NW 0.00 NW 1.34 NW No 0.000 No Precipitation 02/20/2021 06:13 AM 02/20/2021 06:18 AM 0.000 0.000 0.000 0.000 0.000 Not Reported Not Reported
02/23/2021 02:08 AM 28.22 28.04 27.86 53.06 21.74 99.0 Not Reported 0.89 NW 0.67 N 1.12 W No 0.000 No Precipitation 02/20/2021 06:13 AM 02/20/2021 06:18 AM 0.000 0.000 0.000 0.000 0.000 Not Reported Not Reported
02/23/2021 02:23 AM 28.04 28.04 27.86 53.06 21.74 99.0 Not Reported 0.00 N 0.00 N 1.12 W No 0.000 No Precipitation 02/20/2021 06:13 AM 02/20/2021 06:18 AM 0.000 0.000 0.000 0.000 0.000 Not Reported Not Reported
02/23/2021 02:39 AM 27.86 27.68 27.68 53.06 21.74 99.0 Not Reported 0.89 NW 0.89 N 1.12 NW No 0.000 No Precipitation 02/20/2021 06:13 AM 02/20/2021 06:18 AM 0.000 0.000 0.000 0.000 0.000 Not Reported Not Reported
02/23/2021 02:53 AM 27.32 27.14 27.14 53.06 21.74 99.0 Not Reported 0.00 N 0.45 E 0.45 E No 0.000 No Precipitation 02/20/2021 06:13 AM 02/20/2021 06:18 AM 0.000 0.000 0.000 0.000 0.000 Not Reported Not Reported
02/23/2021 03:09 AM 27.32 27.14 27.14 53.06 21.74 99.0 Not Reported 1.12 W 0.89 SW 2.24 N No 0.000 No Precipitation 02/20/2021 06:13 AM 02/20/2021 06:18 AM 0.000 0.000 0.000 0.000 0.000 Not Reported Not Reported
02/23/2021 03:23 AM 27.50 27.50 27.32 53.06 21.74 99.0 Not Reported 2.24 NW 1.57 SE 4.47 N No 0.000 No Precipitation 02/20/2021 06:13 AM 02/20/2021 06:18 AM 0.000 0.000 0.000 0.000 0.000 Not Reported Not Reported
02/23/2021 03:39 AM 26.96 26.96 26.96 53.06 21.74 99.0 Not Reported 1.57 NW 1.57 NW 2.01 N No 0.000 No Precipitation 02/20/2021 06:13 AM 02/20/2021 06:18 AM 0.000 0.000 0.000 0.000 0.000 Not Reported Not Reported
02/23/2021 03:55 AM 26.96 26.78 26.96 53.06 21.74 99.0 Not Reported 0.89 S 0.45 S 1.34 S No 0.000 No Precipitation 02/20/2021 06:13 AM 02/20/2021 06:18 AM 0.000 0.000 0.000 0.000 0.000 Not Reported Not Reported
02/23/2021 04:08 AM 26.42 26.42 26.42 53.06 21.74 99.0 Not Reported 1.79 NW 1.12 W 2.01 NW No 0.000 No Precipitation 02/20/2021 06:13 AM 02/20/2021 06:18 AM 0.000 0.000 0.000 0.000 0.000 Not Reported Not Reported
02/23/2021 04:23 AM 26.24 26.24 26.06 53.06 21.74 99.0 Not Reported 0.00 N 0.89 NW 0.89 NW No 0.000 No Precipitation 02/20/2021 06:13 AM 02/20/2021 06:18 AM 0.000 0.000 0.000 0.000 0.000 Not Reported Not Reported
02/23/2021 04:41 AM 25.88 25.88 25.88 53.06 21.74 99.0 Not Reported 0.45 S 0.00 S 0.89 N No 0.000 No Precipitation 02/20/2021 06:13 AM 02/20/2021 06:18 AM 0.000 0.000 0.000 0.000 0.000 Not Reported Not Reported
02/23/2021 04:53 AM 25.88 25.88 25.70 53.06 21.74 99.0 Not Reported 0.22 NE 0.00 NW 1.12 E No 0.000 No Precipitation 02/20/2021 06:13 AM 02/20/2021 06:18 AM 0.000 0.000 0.000 0.000 0.000 Not Reported Not Reported
02/23/2021 05:08 AM 25.88 25.70 25.70 53.06 21.74 99.0 Not Reported 0.22 NW 0.00 NW 1.34 NW No 0.000 No Precipitation 02/20/2021 06:13 AM 02/20/2021 06:18 AM 0.000 0.000 0.000 0.000 0.000 Not Reported Not Reported
02/23/2021 05:23 AM 25.52 25.52 25.52 53.06 21.74 99.0 Not Reported 0.00 N 0.00 S 0.45 NW No 0.000 No Precipitation 02/20/2021 06:13 AM 02/20/2021 06:18 AM 0.000 0.000 0.000 0.000 0.000 Not Reported Not Reported
02/23/2021 05:39 AM 25.16 25.16 24.98 53.06 21.74 99.0 Not Reported 0.00 S 0.00 S 0.89 S No 0.000 No Precipitation 02/20/2021 06:13 AM 02/20/2021 06:18 AM 0.000 0.000 0.000 0.000 0.000 Not Reported Not Reported
02/23/2021 05:54 AM 25.34 25.34 25.16 53.06 21.74 99.0 Not Reported 0.00 SE 0.45 E 1.79 NW No 0.000 No Precipitation 02/20/2021 06:13 AM 02/20/2021 06:18 AM 0.000 0.000 0.000 0.000 0.000 Not Reported Not Reported
02/23/2021 06:08 AM 25.88 25.88 25.70 53.06 21.74 99.0 Not Reported 0.89 N 1.34 N 1.57 N No 0.000 No Precipitation 02/20/2021 06:13 AM 02/20/2021 06:18 AM 0.000 0.000 0.000 0.000 0.000 Not Reported Not Reported
02/23/2021 06:24 AM 25.34 25.34 25.16 53.06 21.74 99.0 Not Reported 1.34 S 0.00 SW 2.91 S No 0.000 No Precipitation 02/20/2021 06:13 AM 02/20/2021 06:18 AM 0.000 0.000 0.000 0.000 0.000 Not Reported Not Reported
02/23/2021 06:39 AM 25.34 25.16 24.98 53.06 21.74 99.0 Not Reported 0.89 N 0.22 NW 1.57 NW No 0.000 No Precipitation 02/20/2021 06:13 AM 02/20/2021 06:18 AM 0.000 0.000 0.000 0.000 0.000 Not Reported Not Reported
02/23/2021 06:53 AM 25.34 25.34 25.16 53.06 22.28 99.0 Not Reported 0.67 S 2.01 N 2.01 N No 0.000 No Precipitation 02/20/2021 06:13 AM 02/20/2021 06:18 AM 0.000 0.000 0.000 0.000 0.000 Not Reported Not Reported
02/23/2021 07:08 AM 25.70 25.70 25.52 53.06 22.28 99.0 Not Reported 0.89 NW 0.22 NW 2.01 NW No 0.000 No Precipitation 02/20/2021 06:13 AM 02/20/2021 06:18 AM 0.000 0.000 0.000 0.000 0.000 Not Reported Not Reported
02/23/2021 07:24 AM 26.42 26.42 26.24 53.06 22.46 99.0 Not Reported 1.57 N 0.22 E 2.46 NW No 0.000 No Precipitation 02/20/2021 06:13 AM 02/20/2021 06:18 AM 0.000 0.000 0.000 0.000 0.000 Not Reported Not Reported
02/23/2021 07:39 AM 26.42 26.42 26.24 53.06 22.64 98.0 Not Reported 1.79 SE 0.45 SE 1.79 SE No 0.000 No Precipitation 02/20/2021 06:13 AM 02/20/2021 06:18 AM 0.000 0.000 0.000 0.000 0.000 Not Reported Not Reported
02/23/2021 07:53 AM 26.78 26.78 26.42 53.06 23.90 98.0 Not Reported 1.12 SE 0.22 NE 1.79 NW No 0.000 No Precipitation 02/20/2021 06:13 AM 02/20/2021 06:18 AM 0.000 0.000 0.000 0.000 0.000 Not Reported Not Reported
02/23/2021 08:08 AM 28.58 28.40 28.22 53.06 24.98 98.0 Not Reported 0.00 E 0.00 E 0.22 E No 0.000 No Precipitation 02/20/2021 06:13 AM 02/20/2021 06:18 AM 0.000 0.000 0.000 0.000 0.000 Not Reported Not Reported
02/23/2021 08:24 AM 28.76 28.58 28.40 53.06 24.98 98.0 Not Reported 0.22 SE 1.57 E 2.24 SE No 0.000 No Precipitation 02/20/2021 06:13 AM 02/20/2021 06:18 AM 0.000 0.000 0.000 0.000 0.000 Not Reported Not Reported
02/23/2021 08:39 AM 30.56 30.38 29.66 53.06 24.98 96.0 Not Reported 1.34 S 1.79 S 2.46 S No 0.000 No Precipitation 02/20/2021 06:13 AM 02/20/2021 06:18 AM 0.000 0.000 0.000 0.000 0.000 Not Reported Not Reported
02/23/2021 08:54 AM 32.54 31.82 30.56 53.06 24.98 91.0 Not Reported 0.89 SE 0.67 SE 2.01 SE No 0.000 No Precipitation 02/20/2021 06:13 AM 02/20/2021 06:18 AM 0.000 0.000 0.000 0.000 0.000 Not Reported Not Reported
02/23/2021 09:08 AM 35.06 33.80 32.00 53.06 24.98 87.0 Not Reported 1.12 SE 0.00 E 1.57 SE No 0.000 No Precipitation 02/20/2021 06:13 AM 02/20/2021 06:18 AM 0.000 0.000 0.000 0.000 0.000 Not Reported Not Reported
02/23/2021 09:25 AM 36.86 33.44 28.04 53.06 24.98 69.0 Not Reported 1.79 S 1.12 S 2.24 SE No 0.000 No Precipitation 02/20/2021 06:13 AM 02/20/2021 06:18 AM 0.000 0.000 0.000 0.000 0.000 Not Reported Not Reported
02/23/2021 09:39 AM 40.28 32.72 18.32 53.06 24.98 40.0 Not Reported 2.01 S 2.68 S 2.91 S No 0.000 No Precipitation 02/20/2021 06:13 AM 02/20/2021 06:18 AM 0.000 0.000 0.000 0.000 0.000 Not Reported Not Reported
02/23/2021 09:53 AM 42.26 33.80 17.96 53.06 24.98 36.0 Not Reported 3.36 SE 0.45 SE 4.47 SE No 0.000 No Precipitation 02/20/2021 06:13 AM 02/20/2021 06:18 AM 0.000 0.000 0.000 0.000 0.000 Not Reported Not Reported
02/23/2021 10:09 AM 45.86 34.70 10.22 53.06 24.98 22.0 Not Reported 0.67 E 0.67 S 3.13 SE No 0.000 No Precipitation 02/20/2021 06:13 AM 02/20/2021 06:18 AM 0.000 0.000 0.000 0.000 0.000 Not Reported Not Reported
02/23/2021 10:23 AM 45.86 33.62 6.62 53.06 24.98 19.0 Not Reported 3.58 SE 2.68 E 4.70 SE No 0.000 No Precipitation 02/20/2021 06:13 AM 02/20/2021 06:18 AM 0.000 0.000 0.000 0.000 0.000 Not Reported Not Reported
02/23/2021 10:38 AM 48.02 35.06 6.98 53.06 24.98 18.0 Not Reported 0.67 NW 1.79 SE 3.13 E No 0.000 No Precipitation 02/20/2021 06:13 AM 02/20/2021 06:18 AM 0.000 0.000 0.000 0.000 0.000 Not Reported Not Reported
02/23/2021 10:53 AM 47.84 35.24 8.96 53.06 24.98 20.0 Not Reported 1.34 NE 2.24 NE 6.49 NE No 0.000 No Precipitation 02/20/2021 06:13 AM 02/20/2021 06:18 AM 0.000 0.000 0.000 0.000 0.000 Not Reported Not Reported
02/23/2021 11:08 AM 48.20 35.24 7.88 53.06 24.98 18.0 Not Reported 2.91 SE 3.58 S 5.14 NE No 0.000 No Precipitation 02/20/2021 06:13 AM 02/20/2021 06:18 AM 0.000 0.000 0.000 0.000 0.000 Not Reported Not Reported
02/23/2021 11:23 AM 47.48 34.70 6.80 53.06 24.98 18.0 Not Reported 3.13 SE 1.57 N 5.37 SE No 0.000 No Precipitation 02/20/2021 06:13 AM 02/20/2021 06:18 AM 0.000 0.000 0.000 0.000 0.000 Not Reported Not Reported
02/23/2021 11:39 AM 48.92 36.32 9.14 53.06 24.98 19.0 Not Reported 2.91 E 2.24 S 4.47 SE No 0.000 No Precipitation 02/20/2021 06:13 AM 02/20/2021 06:18 AM 0.000 0.000 0.000 0.000 0.000 Not Reported Not Reported
02/23/2021 11:53 AM 48.74 35.42 6.80 53.06 24.98 17.0 Not Reported 1.12 NW 3.80 E 5.59 SE No 0.000 No Precipitation 02/20/2021 06:13 AM 02/20/2021 06:18 AM 0.000 0.000 0.000 0.000 0.000 Not Reported Not Reported
02/23/2021 12:08 PM 49.10 35.06 3.20 53.06 24.98 14.0 Not Reported 3.80 E 5.14 SE 6.71 S No 0.000 No Precipitation 02/20/2021 06:13 AM 02/20/2021 06:18 AM 0.000 0.000 0.000 0.000 0.000 Not Reported Not Reported
02/23/2021 12:23 PM 48.74 35.42 6.44 53.06 24.98 17.0 Not Reported 5.14 SE 5.14 E 6.93 SE No 0.000 No Precipitation 02/20/2021 06:13 AM 02/20/2021 06:18 AM 0.000 0.000 0.000 0.000 0.000 Not Reported Not Reported
02/23/2021 12:38 PM 49.64 35.60 4.64 53.06 24.98 15.0 Not Reported 1.79 S 2.46 SW 6.04 SE No 0.000 No Precipitation 02/20/2021 06:13 AM 02/20/2021 06:18 AM 0.000 0.000 0.000 0.000 0.000 Not Reported Not Reported
02/23/2021 12:53 PM 50.36 36.32 6.98 53.06 24.98 16.0 Not Reported 3.58 SE 3.36 E 5.59 E No 0.000 No Precipitation 02/20/2021 06:13 AM 02/20/2021 06:18 AM 0.000 0.000 0.000 0.000 0.000 Not Reported Not Reported
02/23/2021 01:08 PM 51.44 38.12 14.18 53.06 24.98 22.0 Not Reported 2.91 NE 2.68 NW 5.14 E No 0.000 No Precipitation 02/20/2021 06:13 AM 02/20/2021 06:18 AM 0.000 0.000 0.000 0.000 0.000 Not Reported Not Reported
02/23/2021 01:25 PM 52.52 38.30 12.02 53.06 24.98 19.0 Not Reported 2.46 N 2.24 NE 8.50 SE No 0.000 No Precipitation 02/20/2021 06:13 AM 02/20/2021 06:18 AM 0.000 0.000 0.000 0.000 0.000 Not Reported Not Reported
02/23/2021 01:38 PM 51.98 37.40 8.42 53.42 24.98 16.0 Not Reported 4.47 E 2.01 SE 6.26 SE No 0.000 No Precipitation 02/20/2021 06:13 AM 02/20/2021 06:18 AM 0.000 0.000 0.000 0.000 0.000 Not Reported Not Reported
02/23/2021 01:55 PM 52.70 39.38 8.78 53.42 24.98 16.0 Not Reported 2.46 E 2.91 S 5.82 SE No 0.000 No Precipitation 02/20/2021 06:13 AM 02/20/2021 06:18 AM 0.000 0.000 0.000 0.000 0.000 Not Reported Not Reported
02/23/2021 02:09 PM 53.06 37.22 5.18 54.50 24.98 12.0 Not Reported 1.57 SE 2.91 S 5.14 SE No 0.000 No Precipitation 02/20/2021 06:13 AM 02/20/2021 06:18 AM 0.000 0.000 0.000 0.000 0.000 Not Reported Not Reported
02/23/2021 02:23 PM 53.24 37.58 3.74 54.50 24.98 12.0 Not Reported 2.46 SW 3.36 S 4.70 E No 0.000 No Precipitation 02/20/2021 06:13 AM 02/20/2021 06:18 AM 0.000 0.000 0.000 0.000 0.000 Not Reported Not Reported
02/23/2021 02:38 PM 54.32 38.12 2.84 54.50 24.98 11.0 Not Reported 1.12 N 0.00 S 5.59 S No 0.000 No Precipitation 02/20/2021 06:13 AM 02/20/2021 06:18 AM 0.000 0.000 0.000 0.000 0.000 Not Reported Not Reported
02/23/2021 02:53 PM 54.14 37.58 -0.76 54.50 24.98 10.0 Not Reported 1.79 NE 0.00 E 4.47 NE No 0.000 No Precipitation 02/20/2021 06:13 AM 02/20/2021 06:18 AM 0.000 0.000 0.000 0.000 0.000 Not Reported Not Reported
02/23/2021 03:08 PM 53.78 37.58 2.12 54.50 24.98 11.0 Not Reported 2.24 N 1.57 NE 4.47 N No 0.000 No Precipitation 02/20/2021 06:13 AM 02/20/2021 06:18 AM 0.000 0.000 0.000 0.000 0.000 Not Reported Not Reported
02/23/2021 03:23 PM 53.96 37.94 3.92 54.50 24.98 12.0 Not Reported 0.89 N 2.46 N 8.50 N No 0.000 No Precipitation 02/20/2021 06:13 AM 02/20/2021 06:18 AM 0.000 0.000 0.000 0.000 0.000 Not Reported Not Reported
02/23/2021 03:38 PM 53.42 37.94 5.90 54.50 24.98 14.0 Not Reported 2.91 N 2.91 N 6.71 N No 0.000 No Precipitation 02/20/2021 06:13 AM 02/20/2021 06:18 AM 0.000 0.000 0.000 0.000 0.000 Not Reported Not Reported
02/23/2021 03:53 PM 52.34 36.86 2.66 54.50 24.98 12.0 Not Reported 3.13 W 2.91 N 8.05 N No 0.000 No Precipitation 02/20/2021 06:13 AM 02/20/2021 06:18 AM 0.000 0.000 0.000 0.000 0.000 Not Reported Not Reported
02/23/2021 04:08 PM 52.16 37.22 6.08 54.50 24.98 14.0 Not Reported 4.03 NE 2.68 N 5.59 NE No 0.000 No Precipitation 02/20/2021 06:13 AM 02/20/2021 06:18 AM 0.000 0.000 0.000 0.000 0.000 Not Reported Not Reported
02/23/2021 04:23 PM 51.26 36.32 3.20 54.50 24.98 13.0 Not Reported 2.24 NE 0.22 NW 4.03 N No 0.000 No Precipitation 02/20/2021 06:13 AM 02/20/2021 06:18 AM 0.000 0.000 0.000 0.000 0.000 Not Reported Not Reported
02/23/2021 04:38 PM 46.04 34.34 9.68 54.50 24.98 22.0 Not Reported 2.68 N 4.25 N 4.25 N No 0.000 No Precipitation 02/20/2021 06:13 AM 02/20/2021 06:18 AM 0.000 0.000 0.000 0.000 0.000 Not Reported Not Reported
02/23/2021 04:54 PM 40.64 32.00 22.10 54.50 24.98 46.0 Not Reported 3.36 NE 2.91 NE 4.70 N No 0.000 No Precipitation 02/20/2021 06:13 AM 02/20/2021 06:18 AM 0.000 0.000 0.000 0.000 0.000 Not Reported Not Reported
02/23/2021 05:08 PM 37.76 32.00 21.38 54.50 24.98 50.0 Not Reported 1.79 NW 1.34 NW 3.80 N No 0.000 No Precipitation 02/20/2021 06:13 AM 02/20/2021 06:18 AM 0.000 0.000 0.000 0.000 0.000 Not Reported Not Reported
02/23/2021 05:23 PM 35.96 31.10 22.10 54.50 24.98 56.0 Not Reported 1.34 N 1.57 N 3.13 NW No 0.000 No Precipitation 02/20/2021 06:13 AM 02/20/2021 06:18 AM 0.000 0.000 0.000 0.000 0.000 Not Reported Not Reported
02/23/2021 05:38 PM 34.52 31.10 24.80 54.50 24.98 66.0 Not Reported 1.79 W 2.01 W 2.01 W No 0.000 No Precipitation 02/20/2021 06:13 AM 02/20/2021 06:18 AM 0.000 0.000 0.000 0.000 0.000 Not Reported Not Reported
02/23/2021 05:53 PM 32.90 28.76 20.30 54.50 24.98 59.0 Not Reported 1.57 W 0.89 NW 1.79 W No 0.000 No Precipitation 02/20/2021 06:13 AM 02/20/2021 06:18 AM 0.000 0.000 0.000 0.000 0.000 Not Reported Not Reported
02/23/2021 06:08 PM 31.64 27.32 18.14 54.50 24.98 57.0 Not Reported 0.67 W 1.34 W 1.34 W No 0.000 No Precipitation 02/20/2021 06:13 AM 02/20/2021 06:18 AM 0.000 0.000 0.000 0.000 0.000 Not Reported Not Reported
02/23/2021 06:23 PM 30.74 26.96 18.86 54.50 24.98 61.0 Not Reported 0.67 NW 0.67 W 1.12 W No 0.000 No Precipitation 02/20/2021 06:13 AM 02/20/2021 06:18 AM 0.000 0.000 0.000 0.000 0.000 Not Reported Not Reported
02/23/2021 06:38 PM 30.20 26.96 20.12 54.50 24.98 65.0 Not Reported 0.45 SW 0.22 SW 1.57 NW No 0.000 No Precipitation 02/20/2021 06:13 AM 02/20/2021 06:18 AM 0.000 0.000 0.000 0.000 0.000 Not Reported Not Reported
02/23/2021 06:55 PM 29.30 26.06 19.22 54.50 24.98 65.0 Not Reported 0.89 NW 0.45 W 2.01 NW No 0.000 No Precipitation 02/20/2021 06:13 AM 02/20/2021 06:18 AM 0.000 0.000 0.000 0.000 0.000 Not Reported Not Reported
02/23/2021 07:08 PM 28.76 26.06 20.12 54.50 24.98 69.0 Not Reported 0.45 W 0.89 W 0.89 W No 0.000 No Precipitation 02/20/2021 06:13 AM 02/20/2021 06:18 AM 0.000 0.000 0.000 0.000 0.000 Not Reported Not Reported
02/23/2021 07:24 PM 28.04 25.16 19.40 54.50 24.98 69.0 Not Reported 0.22 NW 0.00 N 1.79 NW No 0.000 No Precipitation 02/20/2021 06:13 AM 02/20/2021 06:18 AM 0.000 0.000 0.000 0.000 0.000 Not Reported Not Reported
02/23/2021 07:38 PM 27.86 24.98 18.68 54.50 24.98 67.0 Not Reported 1.79 W 1.12 W 2.24 NW No 0.000 No Precipitation 02/20/2021 06:13 AM 02/20/2021 06:18 AM 0.000 0.000 0.000 0.000 0.000 Not Reported Not Reported
02/23/2021 07:55 PM 27.50 25.16 19.76 54.50 24.98 72.0 Not Reported 0.45 S 0.00 SW 0.89 SW No 0.000 No Precipitation 02/20/2021 06:13 AM 02/20/2021 06:18 AM 0.000 0.000 0.000 0.000 0.000 Not Reported Not Reported
02/23/2021 08:08 PM 27.32 24.98 20.30 54.50 24.98 74.0 Not Reported 0.22 S 0.00 S 1.57 W No 0.000 No Precipitation 02/20/2021 06:13 AM 02/20/2021 06:18 AM 0.000 0.000 0.000 0.000 0.000 Not Reported Not Reported
02/23/2021 08:25 PM 26.78 24.44 19.22 54.50 24.98 72.0 Not Reported 0.00 W 1.12 NW 1.34 NW No 0.000 No Precipitation 02/20/2021 06:13 AM 02/20/2021 06:18 AM 0.000 0.000 0.000 0.000 0.000 Not Reported Not Reported
02/23/2021 08:38 PM 26.96 24.44 18.68 54.50 24.98 70.0 Not Reported 0.45 N 0.22 NE 2.68 W No 0.000 No Precipitation 02/20/2021 06:13 AM 02/20/2021 06:18 AM 0.000 0.000 0.000 0.000 0.000 Not Reported Not Reported
02/23/2021 08:54 PM 26.96 24.26 17.96 54.50 24.98 68.0 Not Reported 1.34 W 2.91 NW 2.91 NW No 0.000 No Precipitation 02/20/2021 06:13 AM 02/20/2021 06:18 AM 0.000 0.000 0.000 0.000 0.000 Not Reported Not Reported
02/23/2021 09:08 PM 26.96 24.26 18.50 54.50 24.98 70.0 Not Reported 0.00 N 0.00 N 1.34 NW No 0.000 No Precipitation 02/20/2021 06:13 AM 02/20/2021 06:18 AM 0.000 0.000 0.000 0.000 0.000 Not Reported Not Reported
02/23/2021 09:24 PM 26.06 23.72 18.86 54.50 24.98 73.0 Not Reported 1.12 NW 0.45 W 1.34 N No 0.000 No Precipitation 02/20/2021 06:13 AM 02/20/2021 06:18 AM 0.000 0.000 0.000 0.000 0.000 Not Reported Not Reported
02/23/2021 09:38 PM 25.70 23.18 17.60 54.50 24.98 70.0 Not Reported 0.00 NE 0.00 NE 1.12 SW No 0.000 No Precipitation 02/20/2021 06:13 AM 02/20/2021 06:18 AM 0.000 0.000 0.000 0.000 0.000 Not Reported Not Reported
02/23/2021 09:54 PM 25.52 23.18 17.78 54.50 24.98 72.0 Not Reported 0.00 W 0.00 N 0.67 S No 0.000 No Precipitation 02/20/2021 06:13 AM 02/20/2021 06:18 AM 0.000 0.000 0.000 0.000 0.000 Not Reported Not Reported
02/23/2021 10:08 PM 25.52 23.00 17.42 54.50 24.98 70.0 Not Reported 1.57 W 0.45 W 2.46 NW No 0.000 No Precipitation 02/20/2021 06:13 AM 02/20/2021 06:18 AM 0.000 0.000 0.000 0.000 0.000 Not Reported Not Reported
02/23/2021 10:24 PM 25.16 22.64 16.52 54.50 24.98 68.0 Not Reported 0.22 NW 0.67 NW 0.89 NW No 0.000 No Precipitation 02/20/2021 06:13 AM 02/20/2021 06:18 AM 0.000 0.000 0.000 0.000 0.000 Not Reported Not Reported
02/23/2021 10:38 PM 24.80 22.10 15.26 54.50 24.80 66.0 Not Reported 0.22 NW 0.89 NW 1.12 NW No 0.000 No Precipitation 02/20/2021 06:13 AM 02/20/2021 06:18 AM 0.000 0.000 0.000 0.000 0.000 Not Reported Not Reported
02/23/2021 10:54 PM 24.98 22.64 17.06 54.50 24.80 71.0 Not Reported 0.22 NW 1.34 N 1.57 W No 0.000 No Precipitation 02/20/2021 06:13 AM 02/20/2021 06:18 AM 0.000 0.000 0.000 0.000 0.000 Not Reported Not Reported
02/23/2021 11:09 PM 24.98 22.46 16.70 54.50 24.80 70.0 Not Reported 0.45 N 0.00 N 2.01 NW No 0.000 No Precipitation 02/20/2021 06:13 AM 02/20/2021 06:18 AM 0.000 0.000 0.000 0.000 0.000 Not Reported Not Reported
02/23/2021 11:26 PM 27.14 23.72 15.26 54.50 24.80 60.0 Not Reported 2.68 W 2.46 W 5.37 NW No 0.000 No Precipitation 02/20/2021 06:13 AM 02/20/2021 06:18 AM 0.000 0.000 0.000 0.000 0.000 Not Reported Not Reported
02/23/2021 11:39 PM 25.70 23.00 16.88 54.50 24.80 68.0 Not Reported 0.22 N 0.22 N 2.68 NW No 0.000 No Precipitation 02/20/2021 06:13 AM 02/20/2021 06:18 AM 0.000 0.000 0.000 0.000 0.000 Not Reported Not Reported
02/23/2021 11:53 PM 25.52 22.46 15.44 54.50 24.80 65.0 Not Reported 0.45 NW 1.34 N 2.24 NW No 0.000 No Precipitation 02/20/2021 06:13 AM 02/20/2021 06:18 AM 0.000 0.000 0.000 0.000 0.000 Not Reported Not Reported